createdAt,value
2023-02-11T00:02:20.645Z,2.15
2023-02-11T00:07:15.081Z,2.85
2023-02-11T00:12:06.744Z,1.73
2023-02-11T00:16:59.679Z,2.05
2023-02-11T00:21:54.264Z,2.17
2023-02-11T00:26:48.644Z,1.85
2023-02-11T00:31:40.752Z,2.35
2023-02-11T00:36:36.168Z,2.87
2023-02-11T00:41:28.936Z,2.47
2023-02-11T00:51:12.877Z,2.72
2023-02-11T00:56:03.228Z,3.90
2023-02-11T01:00:53.992Z,4.03
2023-02-11T01:05:53.055Z,3.42
2023-02-11T01:10:47.501Z,3.65
2023-02-11T01:15:41.014Z,2.95
2023-02-11T01:20:44.043Z,4.18
2023-02-11T01:30:30.982Z,3.15
2023-02-11T01:35:23.222Z,4.18
2023-02-11T01:40:18.173Z,3.78
2023-02-11T01:45:39.891Z,4.03
2023-02-11T01:50:34.625Z,3.67
2023-02-11T01:55:38.427Z,5.25
2023-02-11T02:00:36.774Z,4.93
2023-02-11T02:05:42.827Z,5.55
2023-02-11T02:10:37.904Z,5.05
2023-02-11T02:15:33.995Z,6.22
2023-02-11T02:20:54.720Z,5.43
2023-02-11T02:26:30.724Z,6.60
2023-02-11T02:31:47.249Z,8.38
2023-02-11T02:36:47.565Z,8.38
2023-02-11T02:41:42.217Z,7.22
2023-02-11T02:46:35.512Z,8.27
2023-02-11T02:51:44.520Z,7.82
2023-02-11T02:56:48.919Z,9.20
2023-02-11T03:01:51.545Z,9.25
2023-02-11T03:11:47.031Z,9.13
2023-02-11T03:16:43.144Z,10.02
2023-02-11T03:21:37.785Z,11.45
2023-02-11T03:26:37.007Z,11.15
2023-02-11T03:31:41.297Z,13.30
2023-02-11T03:36:39.746Z,12.05
2023-02-11T03:41:35.104Z,13.65
2023-02-11T03:46:35.400Z,14.02
2023-02-11T03:51:37.489Z,14.05
2023-02-11T03:56:32.366Z,13.77
2023-02-11T04:01:22.825Z,13.50
2023-02-11T04:06:15.466Z,14.13
2023-02-11T04:15:59.169Z,14.90
2023-02-11T04:20:51.041Z,16.02
2023-02-11T04:25:45.926Z,14.27
2023-02-11T04:30:37.803Z,15.25
2023-02-11T04:35:34.216Z,14.98
2023-02-11T04:40:26.976Z,20.50
2023-02-11T04:45:24.250Z,15.57
2023-02-11T05:09:41.892Z,16.92
2023-02-11T05:14:37.939Z,15.95
2023-02-11T05:19:34.138Z,15.70
2023-02-11T05:24:28.922Z,15.70
2023-02-11T05:34:12.716Z,17.25
2023-02-11T05:39:03.729Z,22.30
2023-02-11T05:43:57.508Z,22.75
2023-02-11T05:48:50.208Z,22.15
2023-02-11T05:53:42.256Z,21.80
2023-02-11T05:58:41.565Z,23.05
2023-02-11T06:03:34.241Z,21.83
2023-02-11T06:08:24.773Z,22.90
2023-02-11T06:13:17.944Z,23.30
2023-02-11T06:18:10.256Z,22.77
2023-02-11T06:23:04.251Z,24.33
2023-02-11T06:27:55.634Z,25.58
2023-02-11T06:32:46.888Z,25.70
2023-02-11T06:37:38.355Z,26.00
2023-02-11T06:42:32.320Z,26.42
2023-02-11T06:47:34.161Z,26.90
2023-02-11T06:52:26.117Z,28.02
2023-02-11T06:57:16.840Z,29.42
2023-02-11T07:02:15.317Z,29.10
2023-02-11T07:07:10.164Z,28.83
2023-02-11T07:12:02.030Z,29.80
2023-02-11T07:16:57.529Z,30.33
2023-02-11T07:21:55.438Z,31.70
2023-02-11T07:26:46.893Z,31.73
2023-02-11T07:31:42.220Z,33.00
2023-02-11T07:36:35.428Z,32.40
2023-02-11T07:41:29.565Z,34.03
2023-02-11T07:46:23.047Z,34.35
2023-02-11T07:51:15.522Z,34.28
2023-02-11T07:56:07.661Z,35.58
2023-02-11T08:01:07.449Z,33.03
2023-02-11T08:06:03.647Z,35.28
2023-02-11T08:10:56.556Z,33.42
2023-02-11T08:15:49.922Z,34.17
2023-02-11T08:20:47.119Z,32.37
2023-02-11T08:25:38.692Z,32.67
2023-02-11T08:30:29.930Z,31.20
2023-02-11T08:35:21.424Z,31.73
2023-02-11T08:40:15.987Z,31.40
2023-02-11T08:45:08.750Z,24.65
